LPMA/FNC METAR and TAF weather

Enter ICAO airport designator
Station Type Date Time Source
LPMA METAR 2019/04/23 04:30 UTC NOAA

LPMA 230430Z 34006KT 290V030 9999 SCT015 15/08 Q1012


Station Type Date Time Source
LPMA Decoded METAR 2019/04/23 04:30 UTC NOAA

Aeroporto Da Madeira, Portugal (LPMA) 32-41-52N 016-46-28W
Apr 23, 2019 - 12:30 AM EDT / 2019.04.23 0430 UTC
Wind: from the NNW (340 degrees) at 7 MPH (6 KT) (direction variable):0
Visibility: greater than 7 mile(s):0
Sky conditions: partly cloudy
Temperature: 59 F (15 C)
Dew Point: 46 F (8 C)
Relative Humidity: 62%
Pressure (altimeter): 29.88 in. Hg (1012 hPa)
ob: LPMA 230430Z 34006KT 290V030 9999 SCT015 15/08 Q1012
cycle: 4

Station Type Date Time Source
LPMA TAF 2019/04/22 18:18 UTC NOAA

TAF LPMA 221700Z 2218/2318 19007KT 9999 SCT016
BECMG 2218/2221 35010KT
TEMPO 2221/2301 5000 -RA BKN014 PROB30
TEMPO 2312/2318 VRB08G28KT

Example: see airport list